sensor_id;sensor_type;location;lat;lon;timestamp;pressure;altitude;pressure_sealevel;temperature;humidity
11710;BME280;5911;51.036;6.972;2023-01-26T00:01:18;101692.50;;;3.34;100.00
11710;BME280;5911;51.036;6.972;2023-01-26T00:03:47;101688.91;;;3.36;100.00
11710;BME280;5911;51.036;6.972;2023-01-26T00:06:17;101681.31;;;3.30;100.00
11710;BME280;5911;51.036;6.972;2023-01-26T00:08:46;101689.91;;;3.34;100.00
11710;BME280;5911;51.036;6.972;2023-01-26T00:11:20;101687.38;;;3.31;100.00
11710;BME280;5911;51.036;6.972;2023-01-26T00:13:50;101691.66;;;3.33;100.00
11710;BME280;5911;51.036;6.972;2023-01-26T00:16:18;101684.63;;;3.35;100.00
11710;BME280;5911;51.036;6.972;2023-01-26T00:18:46;101689.91;;;3.34;100.00
11710;BME280;5911;51.036;6.972;2023-01-26T00:21:15;101687.44;;;3.29;100.00
11710;BME280;5911;51.036;6.972;2023-01-26T00:23:44;101687.38;;;3.31;100.00
11710;BME280;5911;51.036;6.972;2023-01-26T00:26:16;101682.28;;;3.28;100.00
11710;BME280;5911;51.036;6.972;2023-01-26T00:28:44;101679.81;;;3.23;100.00
11710;BME280;5911;51.036;6.972;2023-01-26T00:31:14;101666.78;;;3.23;100.00
11710;BME280;5911;51.036;6.972;2023-01-26T00:33:42;101671.94;;;3.25;100.00
11710;BME280;5911;51.036;6.972;2023-01-26T00:36:10;101661.63;;;3.22;100.00
11710;BME280;5911;51.036;6.972;2023-01-26T00:38:39;101656.25;;;3.26;100.00
11710;BME280;5911;51.036;6.972;2023-01-26T00:41:08;101649.34;;;3.25;100.00
11710;BME280;5911;51.036;6.972;2023-01-26T00:43:57;101652.03;;;3.22;100.00
11710;BME280;5911;51.036;6.972;2023-01-26T00:46:25;101640.13;;;3.15;100.00
11710;BME280;5911;51.036;6.972;2023-01-26T00:48:53;101647.63;;;3.24;100.00
11710;BME280;5911;51.036;6.972;2023-01-26T00:51:21;101641.63;;;3.22;100.00
11710;BME280;5911;51.036;6.972;2023-01-26T00:53:49;101640.75;;;3.22;100.00
11710;BME280;5911;51.036;6.972;2023-01-26T00:56:17;101639.84;;;3.23;100.00
11710;BME280;5911;51.036;6.972;2023-01-26T00:58:45;101645.91;;;3.23;100.00
11710;BME280;5911;51.036;6.972;2023-01-26T01:01:14;101640.66;;;3.25;100.00
11710;BME280;5911;51.036;6.972;2023-01-26T01:03:42;101632.94;;;3.22;100.00
11710;BME280;5911;51.036;6.972;2023-01-26T01:06:10;101632.88;;;3.23;100.00
11710;BME280;5911;51.036;6.972;2023-01-26T01:08:38;101639.81;;;3.24;100.00
11710;BME280;5911;51.036;6.972;2023-01-26T01:11:08;101632.84;;;3.25;100.00
11710;BME280;5911;51.036;6.972;2023-01-26T01:13:36;101609.91;;;3.09;100.00
11710;BME280;5911;51.036;6.972;2023-01-26T01:16:05;101628.47;;;3.25;100.00
11710;BME280;5911;51.036;6.972;2023-01-26T01:18:35;101629.38;;;3.24;100.00
11710;BME280;5911;51.036;6.972;2023-01-26T01:21:05;101622.34;;;3.26;100.00
11710;BME280;5911;51.036;6.972;2023-01-26T01:23:33;101631.31;;;3.19;100.00
11710;BME280;5911;51.036;6.972;2023-01-26T01:26:01;101631.03;;;3.27;100.00
11710;BME280;5911;51.036;6.972;2023-01-26T01:28:31;101629.31;;;3.26;100.00
11710;BME280;5911;51.036;6.972;2023-01-26T01:30:59;101624.25;;;3.21;100.00
11710;BME280;5911;51.036;6.972;2023-01-26T01:33:30;101620.66;;;3.25;100.00
11710;BME280;5911;51.036;6.972;2023-01-26T01:36:00;101613.84;;;3.21;100.00
11710;BME280;5911;51.036;6.972;2023-01-26T01:38:29;101614.69;;;3.22;100.00
11710;BME280;5911;51.036;6.972;2023-01-26T01:40:57;101614.69;;;3.22;100.00
11710;BME280;5911;51.036;6.972;2023-01-26T01:43:26;101610.28;;;3.24;100.00
11710;BME280;5911;51.036;6.972;2023-01-26T01:45:54;101612.03;;;3.23;100.00
11710;BME280;5911;51.036;6.972;2023-01-26T01:48:26;101604.22;;;3.23;100.00
11710;BME280;5911;51.036;6.972;2023-01-26T01:50:59;101604.22;;;3.23;100.00
11710;BME280;5911;51.036;6.972;2023-01-26T01:53:32;101579.59;;;3.07;100.00
11710;BME280;5911;51.036;6.972;2023-01-26T01:56:04;101600.13;;;3.16;100.00
11710;BME280;5911;51.036;6.972;2023-01-26T01:58:36;101588.00;;;3.15;100.00
11710;BME280;5911;51.036;6.972;2023-01-26T02:01:05;101585.66;;;3.07;100.00
11710;BME280;5911;51.036;6.972;2023-01-26T02:03:34;101574.38;;;3.07;100.00
11710;BME280;5911;51.036;6.972;2023-01-26T02:06:11;101574.50;;;3.04;100.00
11710;BME280;5911;51.036;6.972;2023-01-26T02:08:43;101572.06;;;2.99;100.00
11710;BME280;5911;51.036;6.972;2023-01-26T02:11:13;101570.75;;;3.11;100.00
11710;BME280;5911;51.036;6.972;2023-01-26T02:13:45;101573.22;;;3.15;100.00
11710;BME280;5911;51.036;6.972;2023-01-26T02:16:15;101569.59;;;3.20;100.00
11710;BME280;5911;51.036;6.972;2023-01-26T02:18:44;101567.78;;;3.22;100.00
11710;BME280;5911;51.036;6.972;2023-01-26T02:21:15;101567.84;;;3.20;100.00
11710;BME280;5911;51.036;6.972;2023-01-26T02:23:51;101562.56;;;3.22;100.00
11710;BME280;5911;51.036;6.972;2023-01-26T02:26:25;101565.25;;;3.20;100.00
11710;BME280;5911;51.036;6.972;2023-01-26T02:28:54;101549.47;;;3.23;100.00
11710;BME280;5911;51.036;6.972;2023-01-26T02:31:22;101552.06;;;3.23;100.00
11710;BME280;5911;51.036;6.972;2023-01-26T02:33:53;101543.59;;;3.18;100.00
11710;BME280;5911;51.036;6.972;2023-01-26T02:36:23;101544.31;;;3.22;100.00
11710;BME280;5911;51.036;6.972;2023-01-26T02:39:01;101554.69;;;3.23;100.00
11710;BME280;5911;51.036;6.972;2023-01-26T02:41:33;101552.31;;;3.17;100.00
11710;BME280;5911;51.036;6.972;2023-01-26T02:44:18;101542.84;;;3.14;100.00
11710;BME280;5911;51.036;6.972;2023-01-26T02:46:46;101542.78;;;3.16;100.00
11710;BME280;5911;51.036;6.972;2023-01-26T02:49:16;101547.91;;;3.19;100.00
11710;BME280;5911;51.036;6.972;2023-01-26T02:52:01;101549.72;;;3.17;100.00
11710;BME280;5911;51.036;6.972;2023-01-26T02:54:32;101548.09;;;3.13;100.00
11710;BME280;5911;51.036;6.972;2023-01-26T02:57:18;101551.63;;;3.12;100.00
11710;BME280;5911;51.036;6.972;2023-01-26T02:59:46;101537.69;;;3.13;100.00
11710;BME280;5911;51.036;6.972;2023-01-26T03:02:14;101539.50;;;3.11;100.00
11710;BME280;5911;51.036;6.972;2023-01-26T03:04:42;101534.72;;;2.99;100.00
11710;BME280;5911;51.036;6.972;2023-01-26T03:07:10;101538.78;;;3.06;100.00
11710;BME280;5911;51.036;6.972;2023-01-26T03:09:38;101538.03;;;3.04;100.00
11710;BME280;5911;51.036;6.972;2023-01-26T03:12:07;101522.50;;;3.01;100.00
11710;BME280;5911;51.036;6.972;2023-01-26T03:14:37;101529.41;;;3.02;100.00
11710;BME280;5911;51.036;6.972;2023-01-26T03:17:05;101529.41;;;3.02;100.00
11710;BME280;5911;51.036;6.972;2023-01-26T03:19:32;101522.66;;;2.96;100.00
11710;BME280;5911;51.036;6.972;2023-01-26T03:22:29;101527.81;;;2.98;100.00
11710;BME280;5911;51.036;6.972;2023-01-26T03:25:15;101516.69;;;2.93;100.00
11710;BME280;5911;51.036;6.972;2023-01-26T03:28:00;101522.59;;;2.98;100.00
11710;BME280;5911;51.036;6.972;2023-01-26T03:30:29;101522.59;;;2.98;100.00
11710;BME280;5911;51.036;6.972;2023-01-26T03:32:59;101525.16;;;2.99;100.00
11710;BME280;5911;51.036;6.972;2023-01-26T03:35:27;101522.50;;;3.01;100.00
11710;BME280;5911;51.036;6.972;2023-01-26T03:37:54;101516.47;;;2.99;100.00
11710;BME280;5911;51.036;6.972;2023-01-26T03:40:35;101516.44;;;3.00;100.00
11710;BME280;5911;51.036;6.972;2023-01-26T03:43:20;101516.53;;;2.97;100.00
11710;BME280;5911;51.036;6.972;2023-01-26T03:46:07;101517.38;;;2.98;100.00
11710;BME280;5911;51.036;6.972;2023-01-26T03:48:53;101516.44;;;3.00;100.00
11710;BME280;5911;51.036;6.972;2023-01-26T03:51:38;101516.63;;;2.94;100.00
11710;BME280;5911;51.036;6.972;2023-01-26T03:54:23;101509.72;;;2.93;100.00
11710;BME280;5911;51.036;6.972;2023-01-26T03:57:08;101510.56;;;2.94;100.00
11710;BME280;5911;51.036;6.972;2023-01-26T03:59:36;101505.59;;;2.88;100.00
11710;BME280;5911;51.036;6.972;2023-01-26T04:02:11;101495.38;;;2.81;100.00
11710;BME280;5911;51.036;6.972;2023-01-26T04:04:57;101491.97;;;2.79;100.00
11710;BME280;5911;51.036;6.972;2023-01-26T04:07:51;101497.88;;;2.85;100.00
11710;BME280;5911;51.036;6.972;2023-01-26T04:10:36;101495.03;;;2.91;100.00
11710;BME280;5911;51.036;6.972;2023-01-26T04:13:04;101494.13;;;2.92;100.00
11710;BME280;5911;51.036;6.972;2023-01-26T04:15:59;101504.56;;;2.92;100.00
11710;BME280;5911;51.036;6.972;2023-01-26T04:18:45;101509.50;;;2.99;100.00
11710;BME280;5911;51.036;6.972;2023-01-26T04:21:31;101504.31;;;2.99;100.00
11710;BME280;5911;51.036;6.972;2023-01-26T04:24:05;101505.25;;;2.97;100.00
11710;BME280;5911;51.036;6.972;2023-01-26T04:26:36;101505.25;;;2.97;100.00
11710;BME280;5911;51.036;6.972;2023-01-26T04:29:08;101501.00;;;2.94;100.00
11710;BME280;5911;51.036;6.972;2023-01-26T04:31:36;101494.72;;;3.00;100.00
11710;BME280;5911;51.036;6.972;2023-01-26T04:34:09;101493.59;;;3.07;100.00
11710;BME280;5911;51.036;6.972;2023-01-26T04:36:39;101485.91;;;3.04;100.00
11710;BME280;5911;51.036;6.972;2023-01-26T04:39:07;101489.28;;;3.06;100.00
11710;BME280;5911;51.036;6.972;2023-01-26T04:41:38;101493.53;;;3.08;100.00
11710;BME280;5911;51.036;6.972;2023-01-26T04:44:10;101497.91;;;3.08;100.00
11710;BME280;5911;51.036;6.972;2023-01-26T04:46:39;101489.16;;;3.09;100.00
11710;BME280;5911;51.036;6.972;2023-01-26T04:49:09;101492.69;;;3.08;100.00
11710;BME280;5911;51.036;6.972;2023-01-26T04:51:38;101496.31;;;3.04;100.00
11710;BME280;5911;51.036;6.972;2023-01-26T04:54:06;101499.69;;;3.06;100.00
11710;BME280;5911;51.036;6.972;2023-01-26T04:56:38;101503.81;;;3.13;100.00
11710;BME280;5911;51.036;6.972;2023-01-26T04:59:06;101499.50;;;3.12;100.00
11710;BME280;5911;51.036;6.972;2023-01-26T05:01:38;101500.28;;;3.14;100.00
11710;BME280;5911;51.036;6.972;2023-01-26T05:04:07;101504.19;;;3.02;100.00
11710;BME280;5911;51.036;6.972;2023-01-26T05:06:39;101500.09;;;2.95;100.00
11710;BME280;5911;51.036;6.972;2023-01-26T05:09:07;101497.59;;;2.92;100.00
11710;BME280;5911;51.036;6.972;2023-01-26T05:11:37;101498.25;;;2.99;100.00
11710;BME280;5911;51.036;6.972;2023-01-26T05:14:31;101503.56;;;2.96;100.00
11710;BME280;5911;51.036;6.972;2023-01-26T05:17:09;101509.56;;;2.98;100.00
11710;BME280;5911;51.036;6.972;2023-01-26T05:19:46;101498.59;;;2.90;100.00
11710;BME280;5911;51.036;6.972;2023-01-26T05:22:30;101503.09;;;2.85;100.00
11710;BME280;5911;51.036;6.972;2023-01-26T05:25:16;101501.44;;;2.82;100.00
11710;BME280;5911;51.036;6.972;2023-01-26T05:27:51;101500.09;;;2.95;100.00
11710;BME280;5911;51.036;6.972;2023-01-26T05:30:19;101501.84;;;2.95;100.00
11710;BME280;5911;51.036;6.972;2023-01-26T05:32:49;101494.00;;;2.96;100.00
11710;BME280;5911;51.036;6.972;2023-01-26T05:35:16;101505.06;;;3.03;100.00
11710;BME280;5911;51.036;6.972;2023-01-26T05:37:46;101501.53;;;3.04;100.00
11710;BME280;5911;51.036;6.972;2023-01-26T05:40:14;101501.69;;;2.99;100.00
11710;BME280;5911;51.036;6.972;2023-01-26T05:42:43;101497.34;;;3.00;100.00
11710;BME280;5911;51.036;6.972;2023-01-26T05:45:42;101495.59;;;3.00;100.00
11710;BME280;5911;51.036;6.972;2023-01-26T05:48:12;101497.19;;;3.04;100.00
11710;BME280;5911;51.036;6.972;2023-01-26T05:50:40;101491.84;;;3.07;100.00
11710;BME280;5911;51.036;6.972;2023-01-26T05:53:14;101499.94;;;3.00;100.00
11710;BME280;5911;51.036;6.972;2023-01-26T05:55:42;101521.00;;;2.94;100.00
11710;BME280;5911;51.036;6.972;2023-01-26T05:58:10;101508.16;;;2.89;100.00
11710;BME280;5911;51.036;6.972;2023-01-26T06:00:39;101503.66;;;2.93;100.00
11710;BME280;5911;51.036;6.972;2023-01-26T06:03:14;101507.91;;;2.95;100.00
11710;BME280;5911;51.036;6.972;2023-01-26T06:05:42;101519.09;;;2.99;100.00
11710;BME280;5911;51.036;6.972;2023-01-26T06:08:21;101512.88;;;3.03;100.00
11710;BME280;5911;51.036;6.972;2023-01-26T06:11:27;101511.38;;;2.96;100.00
11710;BME280;5911;51.036;6.972;2023-01-26T06:14:06;101510.22;;;2.79;100.00
11710;BME280;5911;51.036;6.972;2023-01-26T06:16:34;101507.41;;;2.86;100.00
11710;BME280;5911;51.036;6.972;2023-01-26T06:19:02;101511.75;;;2.85;100.00
11710;BME280;5911;51.036;6.972;2023-01-26T06:21:30;101519.53;;;2.87;100.00
11710;BME280;5911;51.036;6.972;2023-01-26T06:23:59;101520.53;;;2.82;100.00
11710;BME280;5911;51.036;6.972;2023-01-26T06:26:27;101525.66;;;2.86;100.00
11710;BME280;5911;51.036;6.972;2023-01-26T06:28:56;101526.66;;;2.81;100.00
11710;BME280;5911;51.036;6.972;2023-01-26T06:31:28;101523.69;;;2.91;100.00
11710;BME280;5911;51.036;6.972;2023-01-26T06:33:58;101530.56;;;2.93;100.00
11710;BME280;5911;51.036;6.972;2023-01-26T06:36:27;101525.19;;;2.98;100.00
11710;BME280;5911;51.036;6.972;2023-01-26T06:38:56;101521.75;;;2.97;100.00
11710;BME280;5911;51.036;6.972;2023-01-26T06:41:28;101529.06;;;2.88;100.00
11710;BME280;5911;51.036;6.972;2023-01-26T06:43:56;101527.28;;;2.88;100.00
11710;BME280;5911;51.036;6.972;2023-01-26T06:46:26;101536.72;;;2.91;100.00
11710;BME280;5911;51.036;6.972;2023-01-26T06:48:54;101534.97;;;2.91;100.00
11710;BME280;5911;51.036;6.972;2023-01-26T06:51:54;101527.91;;;2.95;100.00
11710;BME280;5911;51.036;6.972;2023-01-26T06:54:47;101532.50;;;2.88;100.00
11710;BME280;5911;51.036;6.972;2023-01-26T06:57:46;101529.00;;;2.89;100.00
11710;BME280;5911;51.036;6.972;2023-01-26T07:00:35;101528.88;;;2.92;100.00
11710;BME280;5911;51.036;6.972;2023-01-26T07:03:12;101533.03;;;2.98;100.00
11710;BME280;5911;51.036;6.972;2023-01-26T07:05:40;101539.88;;;3.00;100.00
11710;BME280;5911;51.036;6.972;2023-01-26T07:08:08;101538.22;;;2.98;100.00
11710;BME280;5911;51.036;6.972;2023-01-26T07:10:36;101532.13;;;2.99;100.00
11710;BME280;5911;51.036;6.972;2023-01-26T07:13:06;101543.50;;;2.96;100.00
11710;BME280;5911;51.036;6.972;2023-01-26T07:15:34;101538.22;;;2.98;100.00
11710;BME280;5911;51.036;6.972;2023-01-26T07:18:02;101526.84;;;3.00;100.00
11710;BME280;5911;51.036;6.972;2023-01-26T07:20:30;101521.22;;;2.88;100.00
11710;BME280;5911;51.036;6.972;2023-01-26T07:22:58;101514.84;;;2.96;100.00
11710;BME280;5911;51.036;6.972;2023-01-26T07:25:26;101517.38;;;2.98;100.00
11710;BME280;5911;51.036;6.972;2023-01-26T07:27:55;101522.59;;;2.98;100.00
11710;BME280;5911;51.036;6.972;2023-01-26T07:30:24;101512.38;;;2.92;100.00
11710;BME280;5911;51.036;6.972;2023-01-26T07:32:52;101526.84;;;3.00;100.00
11710;BME280;5911;51.036;6.972;2023-01-26T07:35:20;101525.06;;;3.02;100.00
11710;BME280;5911;51.036;6.972;2023-01-26T07:37:48;101528.50;;;3.03;100.00
11710;BME280;5911;51.036;6.972;2023-01-26T07:40:16;101530.38;;;2.99;100.00
11710;BME280;5911;51.036;6.972;2023-01-26T07:42:44;101530.25;;;3.02;100.00
11710;BME280;5911;51.036;6.972;2023-01-26T07:45:19;101530.22;;;3.04;100.00
11710;BME280;5911;51.036;6.972;2023-01-26T07:47:48;101538.94;;;3.03;100.00
11710;BME280;5911;51.036;6.972;2023-01-26T07:50:16;101527.66;;;3.02;100.00
11710;BME280;5911;51.036;6.972;2023-01-26T07:52:43;101534.63;;;3.02;100.00
11710;BME280;5911;51.036;6.972;2023-01-26T07:55:11;101532.75;;;3.05;100.00
11710;BME280;5911;51.036;6.972;2023-01-26T07:57:39;101531.91;;;3.05;100.00
11710;BME280;5911;51.036;6.972;2023-01-26T08:00:08;101537.88;;;3.07;100.00
11710;BME280;5911;51.036;6.972;2023-01-26T08:02:38;101532.69;;;3.07;100.00
11710;BME280;5911;51.036;6.972;2023-01-26T08:05:07;101527.47;;;3.07;100.00
11710;BME280;5911;51.036;6.972;2023-01-26T08:07:35;101530.78;;;3.12;100.00
11710;BME280;5911;51.036;6.972;2023-01-26T08:10:04;101526.56;;;3.08;100.00
11710;BME280;5911;51.036;6.972;2023-01-26T08:12:33;101529.16;;;3.08;100.00
11710;BME280;5911;51.036;6.972;2023-01-26T08:15:06;101532.56;;;3.10;100.00
11710;BME280;5911;51.036;6.972;2023-01-26T08:17:34;101540.13;;;3.17;100.00
11710;BME280;5911;51.036;6.972;2023-01-26T08:20:04;101539.34;;;3.15;100.00
11710;BME280;5911;51.036;6.972;2023-01-26T08:22:33;101538.44;;;3.16;100.00
11710;BME280;5911;51.036;6.972;2023-01-26T08:25:01;101550.66;;;3.14;100.00
11710;BME280;5911;51.036;6.972;2023-01-26T08:27:29;101551.63;;;3.12;100.00
11710;BME280;5911;51.036;6.972;2023-01-26T08:29:57;101552.25;;;3.18;100.00
11710;BME280;5911;51.036;6.972;2023-01-26T08:32:25;101550.56;;;3.17;100.00
11710;BME280;5911;51.036;6.972;2023-01-26T08:34:53;101545.28;;;3.19;100.00
11710;BME280;5911;51.036;6.972;2023-01-26T08:37:21;101546.91;;;3.22;100.00
11710;BME280;5911;51.036;6.972;2023-01-26T08:39:50;101550.31;;;3.24;100.00
11710;BME280;5911;51.036;6.972;2023-01-26T08:42:18;101552.97;;;3.22;100.00
11710;BME280;5911;51.036;6.972;2023-01-26T08:44:48;101555.47;;;3.25;100.00
11710;BME280;5911;51.036;6.972;2023-01-26T08:47:16;101553.72;;;3.26;100.00
11710;BME280;5911;51.036;6.972;2023-01-26T08:49:44;101557.09;;;3.29;100.00
11710;BME280;5911;51.036;6.972;2023-01-26T08:52:11;101559.69;;;3.29;100.00
11710;BME280;5911;51.036;6.972;2023-01-26T08:54:39;101561.28;;;3.33;100.00
11710;BME280;5911;51.036;6.972;2023-01-26T08:57:08;101561.28;;;3.33;100.00
11710;BME280;5911;51.036;6.972;2023-01-26T08:59:37;101563.19;;;3.28;100.00
11710;BME280;5911;51.036;6.972;2023-01-26T09:02:05;101553.63;;;3.29;100.00
11710;BME280;5911;51.036;6.972;2023-01-26T09:04:33;101565.69;;;3.31;100.00
11710;BME280;5911;51.036;6.972;2023-01-26T09:07:01;101568.25;;;3.33;100.00
11710;BME280;5911;51.036;6.972;2023-01-26T09:09:28;101582.34;;;3.27;100.00
11710;BME280;5911;51.036;6.972;2023-01-26T09:11:56;101577.03;;;3.30;100.00
11710;BME280;5911;51.036;6.972;2023-01-26T09:14:26;101564.78;;;3.32;100.00
11710;BME280;5911;51.036;6.972;2023-01-26T09:16:54;101566.59;;;3.30;100.00
11710;BME280;5911;51.036;6.972;2023-01-26T09:19:22;101572.72;;;3.29;100.00
11710;BME280;5911;51.036;6.972;2023-01-26T09:21:51;101580.44;;;3.32;100.00
11710;BME280;5911;51.036;6.972;2023-01-26T09:24:19;101574.94;;;3.40;100.00
11710;BME280;5911;51.036;6.972;2023-01-26T09:26:47;101575.72;;;3.42;100.00
11710;BME280;5911;51.036;6.972;2023-01-26T09:29:15;101569.06;;;3.35;100.00
11710;BME280;5911;51.036;6.972;2023-01-26T09:31:44;101574.81;;;3.43;100.00
11710;BME280;5911;51.036;6.972;2023-01-26T09:34:12;101572.16;;;3.44;100.00
11710;BME280;5911;51.036;6.972;2023-01-26T09:36:40;101573.88;;;3.45;100.00
11710;BME280;5911;51.036;6.972;2023-01-26T09:39:08;101580.72;;;3.48;100.00
11710;BME280;5911;51.036;6.972;2023-01-26T09:41:54;101580.84;;;3.45;100.00
11710;BME280;5911;51.036;6.972;2023-01-26T09:44:26;101580.00;;;3.44;100.00
11710;BME280;5911;51.036;6.972;2023-01-26T09:47:03;101581.78;;;3.42;100.00
11710;BME280;5911;51.036;6.972;2023-01-26T09:49:42;101581.69;;;3.45;100.00
11710;BME280;5911;51.036;6.972;2023-01-26T09:52:17;101569.56;;;3.44;100.00
11710;BME280;5911;51.036;6.972;2023-01-26T09:54:49;101577.31;;;3.46;100.00
11710;BME280;5911;51.036;6.972;2023-01-26T09:57:21;101578.97;;;3.48;100.00
11710;BME280;5911;51.036;6.972;2023-01-26T09:59:53;101582.25;;;3.53;100.00
11710;BME280;5911;51.036;6.972;2023-01-26T10:02:44;101585.09;;;3.47;100.00
11710;BME280;5911;51.036;6.972;2023-01-26T10:05:20;101577.09;;;3.52;100.00
11710;BME280;5911;51.036;6.972;2023-01-26T10:07:51;101575.28;;;3.54;100.00
11710;BME280;5911;51.036;6.972;2023-01-26T10:10:25;101569.09;;;3.57;100.00
11710;BME280;5911;51.036;6.972;2023-01-26T10:12:55;101571.59;;;3.60;100.00
11710;BME280;5911;51.036;6.972;2023-01-26T10:15:28;101560.53;;;3.53;100.00
11710;BME280;5911;51.036;6.972;2023-01-26T10:18:04;101563.03;;;3.56;100.00
11710;BME280;5911;51.036;6.972;2023-01-26T10:20:35;101560.53;;;3.53;100.00
11710;BME280;5911;51.036;6.972;2023-01-26T10:23:08;101564.78;;;3.56;100.00
11710;BME280;5911;51.036;6.972;2023-01-26T10:25:40;101557.97;;;3.51;100.00
11710;BME280;5911;51.036;6.972;2023-01-26T10:28:12;101563.31;;;3.48;100.00
11710;BME280;5911;51.036;6.972;2023-01-26T10:30:43;101560.53;;;3.53;100.00
11710;BME280;5911;51.036;6.972;2023-01-26T10:33:17;101556.91;;;3.57;100.00
11710;BME280;5911;51.036;6.972;2023-01-26T10:35:45;101548.97;;;3.60;100.00
11710;BME280;5911;51.036;6.972;2023-01-26T10:41:24;101543.88;;;3.57;100.00
11710;BME280;5911;51.036;6.972;2023-01-26T10:43:55;101548.19;;;3.58;100.00
11710;BME280;5911;51.036;6.972;2023-01-26T10:46:32;101542.69;;;3.66;100.00
11710;BME280;5911;51.036;6.972;2023-01-26T10:49:02;101541.03;;;3.63;100.00
11710;BME280;5911;51.036;6.972;2023-01-26T10:51:42;101533.91;;;3.67;100.00
11710;BME280;5911;51.036;6.972;2023-01-26T10:54:19;101530.56;;;3.65;100.00
11710;BME280;5911;51.036;6.972;2023-01-26T10:56:49;101525.19;;;3.68;100.00
11710;BME280;5911;51.036;6.972;2023-01-26T10:59:25;101537.31;;;3.69;100.00
11710;BME280;5911;51.036;6.972;2023-01-26T11:01:56;101531.69;;;3.58;100.00
11710;BME280;5911;51.036;6.972;2023-01-26T11:04:26;101531.69;;;3.58;100.00
11710;BME280;5911;51.036;6.972;2023-01-26T11:06:54;101533.28;;;3.62;100.00
11710;BME280;5911;51.036;6.972;2023-01-26T11:09:25;101535.75;;;3.65;100.00
11710;BME280;5911;51.036;6.972;2023-01-26T11:11:58;101529.06;;;3.58;100.00
11710;BME280;5911;51.036;6.972;2023-01-26T11:14:28;101520.44;;;3.56;100.00
11710;BME280;5911;51.036;6.972;2023-01-26T11:17:00;101512.81;;;3.51;100.00
11710;BME280;5911;51.036;6.972;2023-01-26T11:19:42;101520.97;;;3.65;100.00
11710;BME280;5911;51.036;6.972;2023-01-26T11:22:17;101519.06;;;3.69;100.00
11710;BME280;5911;51.036;6.972;2023-01-26T11:24:50;101520.66;;;3.73;100.00
11710;BME280;5911;51.036;6.972;2023-01-26T11:27:33;101520.66;;;3.73;100.00
11710;BME280;5911;51.036;6.972;2023-01-26T11:30:28;101514.53;;;3.74;100.00
11710;BME280;5911;51.036;6.972;2023-01-26T11:33:02;101501.66;;;3.69;100.00
11710;BME280;5911;51.036;6.972;2023-01-26T11:35:47;101507.59;;;3.73;100.00
11710;BME280;5911;51.036;6.972;2023-01-26T11:38:25;101509.94;;;3.80;100.00
11710;BME280;5911;51.036;6.972;2023-01-26T11:41:00;101510.53;;;3.87;100.00
11710;BME280;5911;51.036;6.972;2023-01-26T11:44:06;101505.97;;;3.92;100.00
11710;BME280;5911;51.036;6.972;2023-01-26T11:46:54;101494.97;;;3.84;100.00
11710;BME280;5911;51.036;6.972;2023-01-26T11:49:40;101504.97;;;3.96;100.00
11710;BME280;5911;51.036;6.972;2023-01-26T11:52:22;101507.81;;;3.90;100.00
11710;BME280;5911;51.036;6.972;2023-01-26T11:55:05;101512.06;;;3.93;100.00
11710;BME280;5911;51.036;6.972;2023-01-26T11:57:39;101507.75;;;3.92;100.00
11710;BME280;5911;51.036;6.972;2023-01-26T12:00:15;101494.28;;;3.80;100.00
11710;BME280;5911;51.036;6.972;2023-01-26T12:02:59;101506.78;;;3.94;100.00
11710;BME280;5911;51.036;6.972;2023-01-26T12:05:30;101503.38;;;3.92;100.00
11710;BME280;5911;51.036;6.972;2023-01-26T12:08:05;101500.59;;;3.97;100.00
11710;BME280;5911;51.036;6.972;2023-01-26T12:10:40;101499.84;;;3.93;100.00
11710;BME280;5911;51.036;6.972;2023-01-26T12:13:17;101504.22;;;3.93;100.00
11710;BME280;5911;51.036;6.972;2023-01-26T12:15:51;101503.50;;;3.89;100.00
11710;BME280;5911;51.036;6.972;2023-01-26T12:18:22;101487.41;;;3.78;100.00
11710;BME280;5911;51.036;6.972;2023-01-26T12:21:11;101492.38;;;3.84;100.00
11710;BME280;5911;51.036;6.972;2023-01-26T12:23:50;101487.72;;;3.92;100.00
11710;BME280;5911;51.036;6.972;2023-01-26T12:26:24;101485.16;;;3.91;100.00
11710;BME280;5911;51.036;6.972;2023-01-26T12:29:02;101477.28;;;3.92;100.00
11710;BME280;5911;51.036;6.972;2023-01-26T12:31:40;101475.47;;;3.94;100.00
11710;BME280;5911;51.036;6.972;2023-01-26T12:34:11;101471.22;;;3.92;100.00
11710;BME280;5911;51.036;6.972;2023-01-26T12:36:45;101461.63;;;3.92;100.00
11710;BME280;5911;51.036;6.972;2023-01-26T12:39:24;101460.66;;;3.95;100.00
11710;BME280;5911;51.036;6.972;2023-01-26T12:42:05;101453.00;;;3.90;100.00
11710;BME280;5911;51.036;6.972;2023-01-26T12:44:37;101451.19;;;3.92;100.00
11710;BME280;5911;51.036;6.972;2023-01-26T12:47:11;101452.88;;;3.93;100.00
11710;BME280;5911;51.036;6.972;2023-01-26T12:49:45;101447.66;;;3.93;100.00
11710;BME280;5911;51.036;6.972;2023-01-26T12:52:20;101447.38;;;3.99;100.00
11710;BME280;5911;51.036;6.972;2023-01-26T12:54:57;101450.06;;;3.98;100.00
11710;BME280;5911;51.036;6.972;2023-01-26T12:57:31;101442.84;;;4.04;100.00
11710;BME280;5911;51.036;6.972;2023-01-26T13:00:04;101436.84;;;4.02;100.00
11710;BME280;5911;51.036;6.972;2023-01-26T13:02:35;101441.94;;;4.05;100.00
11710;BME280;5911;51.036;6.972;2023-01-26T13:05:04;101436.59;;;4.08;100.00
11710;BME280;5911;51.036;6.972;2023-01-26T13:07:34;101438.53;;;4.03;100.00
11710;BME280;5911;51.036;6.972;2023-01-26T13:10:26;101441.09;;;4.05;100.00
11710;BME280;5911;51.036;6.972;2023-01-26T13:12:57;101435.91;;;4.03;100.00
11710;BME280;5911;51.036;6.972;2023-01-26T13:15:27;101437.00;;;3.98;100.00
11710;BME280;5911;51.036;6.972;2023-01-26T13:17:59;101428.22;;;4.00;100.00
11710;BME280;5911;51.036;6.972;2023-01-26T13:20:48;101428.94;;;4.04;100.00
11710;BME280;5911;51.036;6.972;2023-01-26T13:23:40;101437.63;;;4.04;100.00
11710;BME280;5911;51.036;6.972;2023-01-26T13:26:18;101434.91;;;4.07;100.00
11710;BME280;5911;51.036;6.972;2023-01-26T13:28:47;101436.59;;;4.08;100.00
11710;BME280;5911;51.036;6.972;2023-01-26T13:31:30;101439.25;;;4.07;100.00
11710;BME280;5911;51.036;6.972;2023-01-26T13:34:01;101435.00;;;4.04;100.00